sensor_id;sensor_type;location;lat;lon;timestamp;temperature;humidity
3770;DHT22;1900;48.890;9.190;2023-07-22T00:01:06;22.60;44.50
3770;DHT22;1900;48.890;9.190;2023-07-22T00:03:32;22.60;44.50
3770;DHT22;1900;48.890;9.190;2023-07-22T00:08:31;22.60;44.50
3770;DHT22;1900;48.890;9.190;2023-07-22T00:10:56;22.60;44.40
3770;DHT22;1900;48.890;9.190;2023-07-22T00:13:22;22.60;44.40
3770;DHT22;1900;48.890;9.190;2023-07-22T00:15:48;22.60;44.40
3770;DHT22;1900;48.890;9.190;2023-07-22T00:18:13;22.60;44.30
3770;DHT22;1900;48.890;9.190;2023-07-22T00:20:39;22.50;44.10
3770;DHT22;1900;48.890;9.190;2023-07-22T00:23:05;22.50;44.10
3770;DHT22;1900;48.890;9.190;2023-07-22T00:25:30;22.50;44.00
3770;DHT22;1900;48.890;9.190;2023-07-22T00:27:58;22.40;43.90
3770;DHT22;1900;48.890;9.190;2023-07-22T00:30:24;22.40;43.90
3770;DHT22;1900;48.890;9.190;2023-07-22T00:32:50;22.30;43.80
3770;DHT22;1900;48.890;9.190;2023-07-22T00:35:19;22.20;43.70
3770;DHT22;1900;48.890;9.190;2023-07-22T00:37:45;22.20;43.80
3770;DHT22;1900;48.890;9.190;2023-07-22T00:40:11;22.10;43.80
3770;DHT22;1900;48.890;9.190;2023-07-22T00:42:40;22.10;43.90
3770;DHT22;1900;48.890;9.190;2023-07-22T00:45:06;22.10;44.00
3770;DHT22;1900;48.890;9.190;2023-07-22T00:47:35;22.00;43.90
3770;DHT22;1900;48.890;9.190;2023-07-22T00:50:07;22.00;44.00
3770;DHT22;1900;48.890;9.190;2023-07-22T00:52:36;22.00;44.10
3770;DHT22;1900;48.890;9.190;2023-07-22T00:55:06;22.00;44.00
3770;DHT22;1900;48.890;9.190;2023-07-22T00:57:32;22.00;44.00
3770;DHT22;1900;48.890;9.190;2023-07-22T00:59:58;21.90;44.00
3770;DHT22;1900;48.890;9.190;2023-07-22T01:02:24;21.90;44.00
3770;DHT22;1900;48.890;9.190;2023-07-22T01:04:51;21.90;44.00
3770;DHT22;1900;48.890;9.190;2023-07-22T01:07:19;21.80;44.00
3770;DHT22;1900;48.890;9.190;2023-07-22T01:09:45;21.80;44.00
3770;DHT22;1900;48.890;9.190;2023-07-22T01:12:11;21.80;44.10
3770;DHT22;1900;48.890;9.190;2023-07-22T01:14:39;21.80;44.20
3770;DHT22;1900;48.890;9.190;2023-07-22T01:17:06;21.70;44.20
3770;DHT22;1900;48.890;9.190;2023-07-22T01:19:33;21.80;44.30
3770;DHT22;1900;48.890;9.190;2023-07-22T01:22:04;21.70;44.10
3770;DHT22;1900;48.890;9.190;2023-07-22T01:24:37;21.70;44.10
3770;DHT22;1900;48.890;9.190;2023-07-22T01:27:06;21.60;44.00
3770;DHT22;1900;48.890;9.190;2023-07-22T01:29:34;21.60;44.10
3770;DHT22;1900;48.890;9.190;2023-07-22T01:31:59;21.60;44.20
3770;DHT22;1900;48.890;9.190;2023-07-22T01:34:25;21.60;44.20
3770;DHT22;1900;48.890;9.190;2023-07-22T01:36:51;21.50;44.10
3770;DHT22;1900;48.890;9.190;2023-07-22T01:39:17;21.50;44.10
3770;DHT22;1900;48.890;9.190;2023-07-22T01:41:44;21.50;44.10
3770;DHT22;1900;48.890;9.190;2023-07-22T01:44:12;21.50;44.30
3770;DHT22;1900;48.890;9.190;2023-07-22T01:46:37;21.50;44.20
3770;DHT22;1900;48.890;9.190;2023-07-22T01:49:06;21.50;44.20
3770;DHT22;1900;48.890;9.190;2023-07-22T01:51:35;21.50;44.40
3770;DHT22;1900;48.890;9.190;2023-07-22T01:54:05;21.40;44.30
3770;DHT22;1900;48.890;9.190;2023-07-22T01:56:35;21.40;44.30
3770;DHT22;1900;48.890;9.190;2023-07-22T01:59:01;21.40;44.40
3770;DHT22;1900;48.890;9.190;2023-07-22T02:01:27;21.40;44.30
3770;DHT22;1900;48.890;9.190;2023-07-22T02:03:54;21.30;44.30
3770;DHT22;1900;48.890;9.190;2023-07-22T02:06:20;21.30;44.40
3770;DHT22;1900;48.890;9.190;2023-07-22T02:08:48;21.30;44.50
3770;DHT22;1900;48.890;9.190;2023-07-22T02:11:14;21.30;44.50
3770;DHT22;1900;48.890;9.190;2023-07-22T02:13:43;21.30;44.50
3770;DHT22;1900;48.890;9.190;2023-07-22T02:16:09;21.30;44.50
3770;DHT22;1900;48.890;9.190;2023-07-22T02:18:37;21.30;44.40
3770;DHT22;1900;48.890;9.190;2023-07-22T02:21:06;21.30;44.40
3770;DHT22;1900;48.890;9.190;2023-07-22T02:23:31;21.20;44.40
3770;DHT22;1900;48.890;9.190;2023-07-22T02:25:57;21.20;44.40
3770;DHT22;1900;48.890;9.190;2023-07-22T02:28:23;21.20;44.40
3770;DHT22;1900;48.890;9.190;2023-07-22T02:30:50;21.20;44.50
3770;DHT22;1900;48.890;9.190;2023-07-22T02:33:18;21.10;44.50
3770;DHT22;1900;48.890;9.190;2023-07-22T02:35:44;21.10;44.60
3770;DHT22;1900;48.890;9.190;2023-07-22T02:38:12;21.10;44.60
3770;DHT22;1900;48.890;9.190;2023-07-22T02:40:39;21.10;44.60
3770;DHT22;1900;48.890;9.190;2023-07-22T02:43:05;21.10;44.70
3770;DHT22;1900;48.890;9.190;2023-07-22T02:45:33;21.00;44.60
3770;DHT22;1900;48.890;9.190;2023-07-22T02:47:59;21.00;44.70
3770;DHT22;1900;48.890;9.190;2023-07-22T02:50:25;21.00;44.70
3770;DHT22;1900;48.890;9.190;2023-07-22T02:52:51;21.00;44.70
3770;DHT22;1900;48.890;9.190;2023-07-22T02:55:20;20.90;44.60
3770;DHT22;1900;48.890;9.190;2023-07-22T02:57:47;20.90;44.70
3770;DHT22;1900;48.890;9.190;2023-07-22T03:00:15;20.90;44.70
3770;DHT22;1900;48.890;9.190;2023-07-22T03:02:56;20.80;44.70
3770;DHT22;1900;48.890;9.190;2023-07-22T03:05:29;20.80;44.90
3770;DHT22;1900;48.890;9.190;2023-07-22T03:07:55;20.70;44.80
3770;DHT22;1900;48.890;9.190;2023-07-22T03:10:21;20.70;44.90
3770;DHT22;1900;48.890;9.190;2023-07-22T03:12:48;20.70;44.90
3770;DHT22;1900;48.890;9.190;2023-07-22T03:15:14;20.60;44.90
3770;DHT22;1900;48.890;9.190;2023-07-22T03:17:40;20.60;44.90
3770;DHT22;1900;48.890;9.190;2023-07-22T03:20:08;20.50;44.90
3770;DHT22;1900;48.890;9.190;2023-07-22T03:22:45;20.50;45.00
3770;DHT22;1900;48.890;9.190;2023-07-22T03:25:12;20.50;45.10
3770;DHT22;1900;48.890;9.190;2023-07-22T03:27:41;20.40;45.10
3770;DHT22;1900;48.890;9.190;2023-07-22T03:30:07;20.40;45.10
3770;DHT22;1900;48.890;9.190;2023-07-22T03:32:36;20.40;45.10
3770;DHT22;1900;48.890;9.190;2023-07-22T03:35:02;20.40;45.30
3770;DHT22;1900;48.890;9.190;2023-07-22T03:37:29;20.40;45.30
3770;DHT22;1900;48.890;9.190;2023-07-22T03:39:55;20.40;45.30
3770;DHT22;1900;48.890;9.190;2023-07-22T03:42:20;20.30;45.30
3770;DHT22;1900;48.890;9.190;2023-07-22T03:44:46;20.30;45.40
3770;DHT22;1900;48.890;9.190;2023-07-22T03:47:12;20.30;45.50
3770;DHT22;1900;48.890;9.190;2023-07-22T03:49:38;20.40;45.50
3770;DHT22;1900;48.890;9.190;2023-07-22T03:52:04;20.30;45.50
3770;DHT22;1900;48.890;9.190;2023-07-22T03:54:30;20.30;45.50
3770;DHT22;1900;48.890;9.190;2023-07-22T03:56:56;20.30;45.50
3770;DHT22;1900;48.890;9.190;2023-07-22T03:59:24;20.30;45.60
3770;DHT22;1900;48.890;9.190;2023-07-22T04:01:50;20.30;45.50
3770;DHT22;1900;48.890;9.190;2023-07-22T04:04:16;20.30;45.50
3770;DHT22;1900;48.890;9.190;2023-07-22T04:06:41;20.30;45.60
3770;DHT22;1900;48.890;9.190;2023-07-22T04:09:07;20.30;45.70
3770;DHT22;1900;48.890;9.190;2023-07-22T04:11:34;20.30;45.70
3770;DHT22;1900;48.890;9.190;2023-07-22T04:13:59;20.30;45.60
3770;DHT22;1900;48.890;9.190;2023-07-22T04:16:25;20.30;45.70
3770;DHT22;1900;48.890;9.190;2023-07-22T04:18:54;20.30;45.80
3770;DHT22;1900;48.890;9.190;2023-07-22T04:21:19;20.30;45.90
3770;DHT22;1900;48.890;9.190;2023-07-22T04:23:45;20.30;46.00
3770;DHT22;1900;48.890;9.190;2023-07-22T04:26:11;20.40;46.10
3770;DHT22;1900;48.890;9.190;2023-07-22T04:28:37;20.40;46.00
3770;DHT22;1900;48.890;9.190;2023-07-22T04:31:05;20.40;46.10
3770;DHT22;1900;48.890;9.190;2023-07-22T04:33:34;20.40;46.00
3770;DHT22;1900;48.890;9.190;2023-07-22T04:36:00;20.40;46.00
3770;DHT22;1900;48.890;9.190;2023-07-22T04:38:29;20.40;46.10
3770;DHT22;1900;48.890;9.190;2023-07-22T04:40:55;20.40;46.30
3770;DHT22;1900;48.890;9.190;2023-07-22T04:43:20;20.40;46.30
3770;DHT22;1900;48.890;9.190;2023-07-22T04:45:46;20.50;46.40
3770;DHT22;1900;48.890;9.190;2023-07-22T04:48:19;20.50;46.50
3770;DHT22;1900;48.890;9.190;2023-07-22T04:50:44;20.50;46.60
3770;DHT22;1900;48.890;9.190;2023-07-22T04:53:11;20.60;46.60
3770;DHT22;1900;48.890;9.190;2023-07-22T04:55:39;20.60;46.70
3770;DHT22;1900;48.890;9.190;2023-07-22T04:58:05;20.70;46.80
3770;DHT22;1900;48.890;9.190;2023-07-22T05:00:30;20.70;46.80
3770;DHT22;1900;48.890;9.190;2023-07-22T05:02:57;20.80;47.00
3770;DHT22;1900;48.890;9.190;2023-07-22T05:05:22;20.80;47.20
3770;DHT22;1900;48.890;9.190;2023-07-22T05:07:48;20.90;47.40
3770;DHT22;1900;48.890;9.190;2023-07-22T05:10:15;21.00;47.60
3770;DHT22;1900;48.890;9.190;2023-07-22T05:12:42;21.10;47.80
3770;DHT22;1900;48.890;9.190;2023-07-22T05:15:09;21.20;47.90
3770;DHT22;1900;48.890;9.190;2023-07-22T05:17:35;21.30;48.10
3770;DHT22;1900;48.890;9.190;2023-07-22T05:20:00;21.40;48.10
3770;DHT22;1900;48.890;9.190;2023-07-22T05:22:26;21.40;47.90
3770;DHT22;1900;48.890;9.190;2023-07-22T05:24:55;21.50;48.00
3770;DHT22;1900;48.890;9.190;2023-07-22T05:27:21;21.60;48.00
3770;DHT22;1900;48.890;9.190;2023-07-22T05:29:47;21.60;47.80
3770;DHT22;1900;48.890;9.190;2023-07-22T05:32:13;21.70;47.90
3770;DHT22;1900;48.890;9.190;2023-07-22T05:34:38;21.80;48.00
3770;DHT22;1900;48.890;9.190;2023-07-22T05:37:04;21.80;47.90
3770;DHT22;1900;48.890;9.190;2023-07-22T05:39:30;21.90;47.90
3770;DHT22;1900;48.890;9.190;2023-07-22T05:41:56;21.90;47.80
3770;DHT22;1900;48.890;9.190;2023-07-22T05:44:21;21.90;47.80
3770;DHT22;1900;48.890;9.190;2023-07-22T05:46:47;21.90;47.60
3770;DHT22;1900;48.890;9.190;2023-07-22T05:49:13;21.90;47.50
3770;DHT22;1900;48.890;9.190;2023-07-22T05:51:39;21.90;47.40
3770;DHT22;1900;48.890;9.190;2023-07-22T05:54:04;21.90;47.30
3770;DHT22;1900;48.890;9.190;2023-07-22T05:56:30;21.80;47.20
3770;DHT22;1900;48.890;9.190;2023-07-22T05:58:59;21.80;47.20
3770;DHT22;1900;48.890;9.190;2023-07-22T06:01:25;21.80;47.30
3770;DHT22;1900;48.890;9.190;2023-07-22T06:03:51;21.70;47.10
3770;DHT22;1900;48.890;9.190;2023-07-22T06:06:17;21.70;47.20
3770;DHT22;1900;48.890;9.190;2023-07-22T06:08:43;21.70;47.30
3770;DHT22;1900;48.890;9.190;2023-07-22T06:11:08;21.70;47.40
3770;DHT22;1900;48.890;9.190;2023-07-22T06:13:34;21.70;47.70
3770;DHT22;1900;48.890;9.190;2023-07-22T06:15:59;21.70;47.60
3770;DHT22;1900;48.890;9.190;2023-07-22T06:18:25;21.70;47.70
3770;DHT22;1900;48.890;9.190;2023-07-22T06:20:51;21.70;47.80
3770;DHT22;1900;48.890;9.190;2023-07-22T06:23:17;21.80;47.90
3770;DHT22;1900;48.890;9.190;2023-07-22T06:25:43;21.80;48.00
3770;DHT22;1900;48.890;9.190;2023-07-22T06:28:11;21.80;48.00
3770;DHT22;1900;48.890;9.190;2023-07-22T06:30:37;21.80;48.00
3770;DHT22;1900;48.890;9.190;2023-07-22T06:33:05;21.70;48.00
3770;DHT22;1900;48.890;9.190;2023-07-22T06:35:31;21.70;48.00
3770;DHT22;1900;48.890;9.190;2023-07-22T06:37:56;21.80;48.20
3770;DHT22;1900;48.890;9.190;2023-07-22T06:40:23;21.80;48.30
3770;DHT22;1900;48.890;9.190;2023-07-22T06:42:48;21.80;48.20
3770;DHT22;1900;48.890;9.190;2023-07-22T06:45:17;21.90;48.50
3770;DHT22;1900;48.890;9.190;2023-07-22T06:47:43;21.90;48.60
3770;DHT22;1900;48.890;9.190;2023-07-22T06:50:12;21.90;48.60
3770;DHT22;1900;48.890;9.190;2023-07-22T06:52:38;21.90;48.60
3770;DHT22;1900;48.890;9.190;2023-07-22T06:55:04;22.00;48.80
3770;DHT22;1900;48.890;9.190;2023-07-22T06:57:30;22.00;48.80
3770;DHT22;1900;48.890;9.190;2023-07-22T06:59:56;22.10;48.90
3770;DHT22;1900;48.890;9.190;2023-07-22T07:02:22;22.10;48.90
3770;DHT22;1900;48.890;9.190;2023-07-22T07:04:49;22.10;48.80
3770;DHT22;1900;48.890;9.190;2023-07-22T07:07:15;22.20;49.00
3770;DHT22;1900;48.890;9.190;2023-07-22T07:09:41;22.20;49.20
3770;DHT22;1900;48.890;9.190;2023-07-22T07:12:07;22.30;49.40
3770;DHT22;1900;48.890;9.190;2023-07-22T07:16:28;22.30;48.50
3770;DHT22;1900;48.890;9.190;2023-07-22T07:18:55;22.30;49.20
3770;DHT22;1900;48.890;9.190;2023-07-22T07:21:21;22.40;49.40
3770;DHT22;1900;48.890;9.190;2023-07-22T07:23:48;22.50;49.60
3770;DHT22;1900;48.890;9.190;2023-07-22T07:26:14;22.50;49.70
3770;DHT22;1900;48.890;9.190;2023-07-22T07:28:40;22.60;49.80
3770;DHT22;1900;48.890;9.190;2023-07-22T07:31:06;22.70;50.00
3770;DHT22;1900;48.890;9.190;2023-07-22T07:33:32;22.80;50.00
3770;DHT22;1900;48.890;9.190;2023-07-22T07:36:02;22.90;50.20
3770;DHT22;1900;48.890;9.190;2023-07-22T07:38:29;23.00;50.30
3770;DHT22;1900;48.890;9.190;2023-07-22T07:40:57;23.10;50.30
3770;DHT22;1900;48.890;9.190;2023-07-22T07:43:23;23.30;50.60
3770;DHT22;1900;48.890;9.190;2023-07-22T07:45:49;23.30;50.30
3770;DHT22;1900;48.890;9.190;2023-07-22T07:48:16;23.40;50.40
3770;DHT22;1900;48.890;9.190;2023-07-22T07:50:42;23.50;50.50
3770;DHT22;1900;48.890;9.190;2023-07-22T07:56:58;23.70;50.50
3770;DHT22;1900;48.890;9.190;2023-07-22T07:59:24;23.70;50.40
3770;DHT22;1900;48.890;9.190;2023-07-22T08:01:50;23.80;50.50
3770;DHT22;1900;48.890;9.190;2023-07-22T08:04:15;23.90;50.70
3770;DHT22;1900;48.890;9.190;2023-07-22T08:06:43;24.00;50.80
3770;DHT22;1900;48.890;9.190;2023-07-22T08:09:08;24.10;50.90
3770;DHT22;1900;48.890;9.190;2023-07-22T08:11:37;24.20;50.90
3770;DHT22;1900;48.890;9.190;2023-07-22T08:14:03;24.30;50.80
3770;DHT22;1900;48.890;9.190;2023-07-22T08:16:31;24.30;50.60
3770;DHT22;1900;48.890;9.190;2023-07-22T08:18:56;24.30;50.30
3770;DHT22;1900;48.890;9.190;2023-07-22T08:21:22;24.40;50.40
3770;DHT22;1900;48.890;9.190;2023-07-22T08:23:48;24.40;50.60
3770;DHT22;1900;48.890;9.190;2023-07-22T08:26:13;24.50;50.70
3770;DHT22;1900;48.890;9.190;2023-07-22T08:28:39;24.50;50.80
3770;DHT22;1900;48.890;9.190;2023-07-22T08:31:05;24.60;50.90
3770;DHT22;1900;48.890;9.190;2023-07-22T08:33:31;24.80;51.20
3770;DHT22;1900;48.890;9.190;2023-07-22T08:35:56;24.90;51.40
3770;DHT22;1900;48.890;9.190;2023-07-22T08:38:27;25.00;51.50
3770;DHT22;1900;48.890;9.190;2023-07-22T08:40:53;25.10;51.50
3770;DHT22;1900;48.890;9.190;2023-07-22T08:43:21;25.20;51.50
3770;DHT22;1900;48.890;9.190;2023-07-22T08:45:48;25.30;51.60
3770;DHT22;1900;48.890;9.190;2023-07-22T08:48:16;25.40;51.60
3770;DHT22;1900;48.890;9.190;2023-07-22T08:53:12;25.70;51.70
3770;DHT22;1900;48.890;9.190;2023-07-22T08:55:39;25.80;51.70
3770;DHT22;1900;48.890;9.190;2023-07-22T08:58:09;25.80;51.50
3770;DHT22;1900;48.890;9.190;2023-07-22T09:00:35;25.90;51.40
3770;DHT22;1900;48.890;9.190;2023-07-22T09:03:02;26.00;51.40
3770;DHT22;1900;48.890;9.190;2023-07-22T09:05:28;26.00;51.30
3770;DHT22;1900;48.890;9.190;2023-07-22T09:07:56;26.10;51.30
3770;DHT22;1900;48.890;9.190;2023-07-22T09:10:24;26.10;51.20
3770;DHT22;1900;48.890;9.190;2023-07-22T09:12:52;26.20;51.20
3770;DHT22;1900;48.890;9.190;2023-07-22T09:15:19;26.20;51.70
3770;DHT22;1900;48.890;9.190;2023-07-22T09:17:46;26.30;51.20
3770;DHT22;1900;48.890;9.190;2023-07-22T09:20:13;26.30;51.10
3770;DHT22;1900;48.890;9.190;2023-07-22T09:22:51;26.40;51.10
3770;DHT22;1900;48.890;9.190;2023-07-22T09:25:23;26.40;51.10
3770;DHT22;1900;48.890;9.190;2023-07-22T09:27:51;26.50;51.00
3770;DHT22;1900;48.890;9.190;2023-07-22T09:30:27;26.50;50.80
3770;DHT22;1900;48.890;9.190;2023-07-22T09:32:58;26.50;50.80
3770;DHT22;1900;48.890;9.190;2023-07-22T09:35:44;26.60;50.90
3770;DHT22;1900;48.890;9.190;2023-07-22T09:38:10;26.60;50.80
3770;DHT22;1900;48.890;9.190;2023-07-22T09:40:40;26.60;50.60
3770;DHT22;1900;48.890;9.190;2023-07-22T09:43:08;26.70;50.80
3770;DHT22;1900;48.890;9.190;2023-07-22T09:45:35;26.70;50.70
3770;DHT22;1900;48.890;9.190;2023-07-22T09:48:00;26.80;50.70
3770;DHT22;1900;48.890;9.190;2023-07-22T09:50:29;26.80;50.60
3770;DHT22;1900;48.890;9.190;2023-07-22T09:52:56;26.80;50.60
3770;DHT22;1900;48.890;9.190;2023-07-22T09:55:25;26.90;50.60
3770;DHT22;1900;48.890;9.190;2023-07-22T10:00:24;26.90;50.40
3770;DHT22;1900;48.890;9.190;2023-07-22T10:02:55;26.90;50.40
3770;DHT22;1900;48.890;9.190;2023-07-22T10:05:21;27.00;50.50
3770;DHT22;1900;48.890;9.190;2023-07-22T10:07:51;27.00;50.40
3770;DHT22;1900;48.890;9.190;2023-07-22T10:10:39;27.00;50.40
3770;DHT22;1900;48.890;9.190;2023-07-22T10:13:05;27.10;50.60
3770;DHT22;1900;48.890;9.190;2023-07-22T10:15:34;27.20;50.90
3770;DHT22;1900;48.890;9.190;2023-07-22T10:18:03;27.30;51.10
3770;DHT22;1900;48.890;9.190;2023-07-22T10:20:34;27.40;51.20
3770;DHT22;1900;48.890;9.190;2023-07-22T10:23:02;27.50;50.90
3770;DHT22;1900;48.890;9.190;2023-07-22T10:25:35;27.60;50.90
3770;DHT22;1900;48.890;9.190;2023-07-22T10:28:02;27.80;50.80
3770;DHT22;1900;48.890;9.190;2023-07-22T10:30:28;27.80;50.80
3770;DHT22;1900;48.890;9.190;2023-07-22T10:32:57;27.90;50.90
3770;DHT22;1900;48.890;9.190;2023-07-22T10:37:55;28.10;50.70
3770;DHT22;1900;48.890;9.190;2023-07-22T10:40:29;28.20;50.70
3770;DHT22;1900;48.890;9.190;2023-07-22T10:45:25;28.30;50.10
3770;DHT22;1900;48.890;9.190;2023-07-22T10:50:45;28.30;49.40
3770;DHT22;1900;48.890;9.190;2023-07-22T11:06:35;28.70;50.00
3770;DHT22;1900;48.890;9.190;2023-07-22T11:09:01;28.80;49.80
3770;DHT22;1900;48.890;9.190;2023-07-22T11:11:42;28.90;49.80
3770;DHT22;1900;48.890;9.190;2023-07-22T11:14:16;29.00;48.70
3770;DHT22;1900;48.890;9.190;2023-07-22T11:16:44;29.10;49.30
3770;DHT22;1900;48.890;9.190;2023-07-22T11:19:10;29.20;49.70
3770;DHT22;1900;48.890;9.190;2023-07-22T11:21:36;29.30;49.60
3770;DHT22;1900;48.890;9.190;2023-07-22T11:24:03;29.40;49.70
3770;DHT22;1900;48.890;9.190;2023-07-22T11:26:30;29.50;49.80
3770;DHT22;1900;48.890;9.190;2023-07-22T11:28:57;29.60;49.90
3770;DHT22;1900;48.890;9.190;2023-07-22T11:31:33;29.70;49.80
3770;DHT22;1900;48.890;9.190;2023-07-22T11:33:59;29.80;49.60
3770;DHT22;1900;48.890;9.190;2023-07-22T11:36:26;29.80;49.40
3770;DHT22;1900;48.890;9.190;2023-07-22T11:39:07;29.90;49.10
3770;DHT22;1900;48.890;9.190;2023-07-22T11:41:34;29.90;48.70
3770;DHT22;1900;48.890;9.190;2023-07-22T11:44:01;29.90;48.60
3770;DHT22;1900;48.890;9.190;2023-07-22T11:46:28;29.90;48.50
3770;DHT22;1900;48.890;9.190;2023-07-22T11:48:55;29.90;48.50
3770;DHT22;1900;48.890;9.190;2023-07-22T11:51:22;29.90;48.70
3770;DHT22;1900;48.890;9.190;2023-07-22T11:53:50;29.90;48.90
3770;DHT22;1900;48.890;9.190;2023-07-22T11:56:23;30.00;49.10
3770;DHT22;1900;48.890;9.190;2023-07-22T11:58:53;30.10;49.00
3770;DHT22;1900;48.890;9.190;2023-07-22T12:01:19;30.20;49.00
3770;DHT22;1900;48.890;9.190;2023-07-22T12:03:46;30.20;48.90
3770;DHT22;1900;48.890;9.190;2023-07-22T12:06:12;30.30;49.00
3770;DHT22;1900;48.890;9.190;2023-07-22T12:08:46;30.40;49.20
3770;DHT22;1900;48.890;9.190;2023-07-22T12:11:20;30.50;49.10
3770;DHT22;1900;48.890;9.190;2023-07-22T12:13:46;30.60;49.30
3770;DHT22;1900;48.890;9.190;2023-07-22T12:16:12;30.70;49.30
3770;DHT22;1900;48.890;9.190;2023-07-22T12:18:45;30.90;49.10
3770;DHT22;1900;48.890;9.190;2023-07-22T12:21:12;31.00;48.90
3770;DHT22;1900;48.890;9.190;2023-07-22T12:23:38;31.10;49.40
3770;DHT22;1900;48.890;9.190;2023-07-22T12:26:05;31.20;48.90
3770;DHT22;1900;48.890;9.190;2023-07-22T12:28:31;31.30;49.20
3770;DHT22;1900;48.890;9.190;2023-07-22T12:31:00;31.40;49.30
3770;DHT22;1900;48.890;9.190;2023-07-22T12:33:26;31.50;49.30
3770;DHT22;1900;48.890;9.190;2023-07-22T12:35:56;31.70;49.60
3770;DHT22;1900;48.890;9.190;2023-07-22T12:38:22;31.80;49.30
3770;DHT22;1900;48.890;9.190;2023-07-22T12:40:51;31.90;49.20
3770;DHT22;1900;48.890;9.190;2023-07-22T12:43:16;32.00;49.00
3770;DHT22;1900;48.890;9.190;2023-07-22T12:45:42;32.00;48.90
3770;DHT22;1900;48.890;9.190;2023-07-22T12:48:09;32.10;48.90
3770;DHT22;1900;48.890;9.190;2023-07-22T12:50:38;32.10;48.60
3770;DHT22;1900;48.890;9.190;2023-07-22T12:53:06;32.20;48.70
3770;DHT22;1900;48.890;9.190;2023-07-22T12:55:32;32.30;48.70
3770;DHT22;1900;48.890;9.190;2023-07-22T12:57:57;32.40;48.90
3770;DHT22;1900;48.890;9.190;2023-07-22T13:00:23;32.50;48.70
3770;DHT22;1900;48.890;9.190;2023-07-22T13:02:49;32.60;48.80
3770;DHT22;1900;48.890;9.190;2023-07-22T13:05:14;32.60;48.50
3770;DHT22;1900;48.890;9.190;2023-07-22T13:07:43;32.60;48.00
3770;DHT22;1900;48.890;9.190;2023-07-22T13:10:09;32.70;47.40
3770;DHT22;1900;48.890;9.190;2023-07-22T13:12:37;32.60;47.30
3770;DHT22;1900;48.890;9.190;2023-07-22T13:15:04;32.60;47.20
3770;DHT22;1900;48.890;9.190;2023-07-22T13:17:31;32.60;47.00
3770;DHT22;1900;48.890;9.190;2023-07-22T13:19:57;32.70;47.20
3770;DHT22;1900;48.890;9.190;2023-07-22T13:22:22;32.70;47.30
3770;DHT22;1900;48.890;9.190;2023-07-22T13:24:48;32.80;47.60
3770;DHT22;1900;48.890;9.190;2023-07-22T13:27:14;32.90;48.00
3770;DHT22;1900;48.890;9.190;2023-07-22T13:29:39;33.00;48.30
3770;DHT22;1900;48.890;9.190;2023-07-22T13:32:05;33.10;48.10
3770;DHT22;1900;48.890;9.190;2023-07-22T13:34:32;33.10;47.10
3770;DHT22;1900;48.890;9.190;2023-07-22T13:36:57;33.10;46.30
3770;DHT22;1900;48.890;9.190;2023-07-22T13:39:23;33.00;46.50
3770;DHT22;1900;48.890;9.190;2023-07-22T13:41:49;33.00;46.00
3770;DHT22;1900;48.890;9.190;2023-07-22T13:44:16;33.00;46.50
3770;DHT22;1900;48.890;9.190;2023-07-22T13:46:42;33.10;46.70
3770;DHT22;1900;48.890;9.190;2023-07-22T13:49:07;33.10;46.60
3770;DHT22;1900;48.890;9.190;2023-07-22T13:51:33;33.20;47.00
3770;DHT22;1900;48.890;9.190;2023-07-22T13:53:59;33.30;46.90
3770;DHT22;1900;48.890;9.190;2023-07-22T13:56:25;33.30;46.80
3770;DHT22;1900;48.890;9.190;2023-07-22T13:58:51;33.40;45.90
3770;DHT22;1900;48.890;9.190;2023-07-22T14:01:17;33.40;45.80
3770;DHT22;1900;48.890;9.190;2023-07-22T14:03:43;33.40;45.50
3770;DHT22;1900;48.890;9.190;2023-07-22T14:06:09;33.30;45.70
3770;DHT22;1900;48.890;9.190;2023-07-22T14:08:34;33.30;45.90
3770;DHT22;1900;48.890;9.190;2023-07-22T14:11:00;33.40;45.50
3770;DHT22;1900;48.890;9.190;2023-07-22T14:13:26;33.30;45.20
3770;DHT22;1900;48.890;9.190;2023-07-22T14:15:51;33.30;45.00
3770;DHT22;1900;48.890;9.190;2023-07-22T14:18:18;33.30;45.00
3770;DHT22;1900;48.890;9.190;2023-07-22T14:20:44;33.20;45.10
3770;DHT22;1900;48.890;9.190;2023-07-22T14:23:11;33.20;45.10
3770;DHT22;1900;48.890;9.190;2023-07-22T14:25:37;33.20;44.30
3770;DHT22;1900;48.890;9.190;2023-07-22T14:28:03;33.20;44.50
3770;DHT22;1900;48.890;9.190;2023-07-22T14:30:28;33.10;44.60
3770;DHT22;1900;48.890;9.190;2023-07-22T14:32:54;33.10;45.00
3770;DHT22;1900;48.890;9.190;2023-07-22T14:35:21;33.10;45.10
3770;DHT22;1900;48.890;9.190;2023-07-22T14:37:47;33.20;45.50
3770;DHT22;1900;48.890;9.190;2023-07-22T14:40:13;33.20;45.50
3770;DHT22;1900;48.890;9.190;2023-07-22T14:42:39;33.20;45.50
3770;DHT22;1900;48.890;9.190;2023-07-22T14:45:06;33.30;45.60
3770;DHT22;1900;48.890;9.190;2023-07-22T14:47:31;33.30;45.60
3770;DHT22;1900;48.890;9.190;2023-07-22T14:49:57;33.30;45.60
3770;DHT22;1900;48.890;9.190;2023-07-22T14:52:23;33.30;45.50
3770;DHT22;1900;48.890;9.190;2023-07-22T14:54:49;33.40;45.00
3770;DHT22;1900;48.890;9.190;2023-07-22T14:57:16;33.40;45.20
3770;DHT22;1900;48.890;9.190;2023-07-22T14:59:42;33.40;45.20
3770;DHT22;1900;48.890;9.190;2023-07-22T15:02:08;33.30;44.10
3770;DHT22;1900;48.890;9.190;2023-07-22T15:04:33;33.30;44.30
3770;DHT22;1900;48.890;9.190;2023-07-22T15:06:59;33.30;44.50
3770;DHT22;1900;48.890;9.190;2023-07-22T15:09:25;33.20;44.60
3770;DHT22;1900;48.890;9.190;2023-07-22T15:11:51;33.20;44.70
3770;DHT22;1900;48.890;9.190;2023-07-22T15:14:16;33.20;44.70
3770;DHT22;1900;48.890;9.190;2023-07-22T15:16:42;33.20;44.70
3770;DHT22;1900;48.890;9.190;2023-07-22T15:19:09;33.20;44.70
3770;DHT22;1900;48.890;9.190;2023-07-22T15:21:35;33.20;44.40
3770;DHT22;1900;48.890;9.190;2023-07-22T15:24:00;33.10;44.40
3770;DHT22;1900;48.890;9.190;2023-07-22T15:26:26;33.10;44.30
3770;DHT22;1900;48.890;9.190;2023-07-22T15:28:53;33.00;44.10
3770;DHT22;1900;48.890;9.190;2023-07-22T15:31:19;33.00;44.20
3770;DHT22;1900;48.890;9.190;2023-07-22T15:33:45;32.90;44.00
3770;DHT22;1900;48.890;9.190;2023-07-22T15:36:11;32.90;43.80
3770;DHT22;1900;48.890;9.190;2023-07-22T15:38:37;32.80;43.70
3770;DHT22;1900;48.890;9.190;2023-07-22T15:41:02;32.80;43.80
3770;DHT22;1900;48.890;9.190;2023-07-22T15:43:29;32.70;43.80
3770;DHT22;1900;48.890;9.190;2023-07-22T15:45:54;32.60;43.70
3770;DHT22;1900;48.890;9.190;2023-07-22T15:48:21;32.60;43.60
3770;DHT22;1900;48.890;9.190;2023-07-22T15:50:46;32.50;43.60
3770;DHT22;1900;48.890;9.190;2023-07-22T15:53:15;32.50;43.60
3770;DHT22;1900;48.890;9.190;2023-07-22T15:55:40;32.40;43.10
3770;DHT22;1900;48.890;9.190;2023-07-22T15:58:06;32.40;43.00
3770;DHT22;1900;48.890;9.190;2023-07-22T16:00:31;32.30;42.80
3770;DHT22;1900;48.890;9.190;2023-07-22T16:02:57;32.20;42.80
3770;DHT22;1900;48.890;9.190;2023-07-22T16:05:23;32.10;43.00
3770;DHT22;1900;48.890;9.190;2023-07-22T16:07:50;32.00;43.00
3770;DHT22;1900;48.890;9.190;2023-07-22T16:10:16;32.00;43.10
3770;DHT22;1900;48.890;9.190;2023-07-22T16:12:41;32.00;43.20
3770;DHT22;1900;48.890;9.190;2023-07-22T16:15:08;32.00;43.20
3770;DHT22;1900;48.890;9.190;2023-07-22T16:17:34;31.90;43.20
3770;DHT22;1900;48.890;9.190;2023-07-22T16:19:59;31.90;43.20
3770;DHT22;1900;48.890;9.190;2023-07-22T16:22:25;31.80;42.90
3770;DHT22;1900;48.890;9.190;2023-07-22T16:24:51;31.80;42.90
3770;DHT22;1900;48.890;9.190;2023-07-22T16:27:16;31.80;42.90
3770;DHT22;1900;48.890;9.190;2023-07-22T16:29:42;31.70;42.70
3770;DHT22;1900;48.890;9.190;2023-07-22T16:32:09;31.70;42.70
3770;DHT22;1900;48.890;9.190;2023-07-22T16:34:35;31.60;42.80